Time;durP1;ratioP1;P1;durP2;ratioP2;P2;SDS_P1;SDS_P2;PMS_P1;PMS_P2;Temp;Humidity;BMP_temperature;BMP_pressure;BME280_temperature;BME280_humidity;BME280_pressure;Samples;Min_cycle;Max_cycle;Signal;HPM_P1;HPM_P2
2022/03/27 00:00:21;;;;;;;20.15;8.02;;;;;;;12.07;92.96;102716.59;5028340;28;20064;-73
2022/03/27 00:02:48;;;;;;;16.52;6.20;;;;;;;12.00;93.64;102716.44;5024462;28;20569;-72
2022/03/27 00:05:14;;;;;;;20.50;6.60;;;;;;;12.01;95.47;102723.59;5027730;28;20731;-71
2022/03/27 00:07:41;;;;;;;16.10;6.63;;;;;;;11.98;95.04;102719.56;5029719;28;20174;-72
2022/03/27 00:10:08;;;;;;;16.50;7.05;;;;;;;11.96;96.69;102723.88;5027141;28;20089;-72
2022/03/27 00:12:35;;;;;;;17.77;7.22;;;;;;;11.92;96.69;102720.19;5025799;28;20072;-73
2022/03/27 00:15:04;;;;;;;17.60;7.90;;;;;;;11.88;96.16;102714.56;5025516;28;20045;-73
2022/03/27 00:17:32;;;;;;;15.02;7.53;;;;;;;11.80;96.29;102720.28;5023262;28;20144;-71
2022/03/27 00:20:00;;;;;;;21.02;7.63;;;;;;;11.70;95.69;102729.13;5026547;28;20115;-72
2022/03/27 00:22:28;;;;;;;16.45;7.93;;;;;;;11.69;96.77;102730.28;5022658;28;20059;-70
2022/03/27 00:24:55;;;;;;;20.25;8.40;;;;;;;11.67;98.77;102727.06;5026967;28;20053;-71
2022/03/27 00:27:22;;;;;;;23.20;8.55;;;;;;;11.65;99.69;102726.63;5026331;28;20053;-71
2022/03/27 00:29:50;;;;;;;18.10;7.72;;;;;;;11.68;98.54;102725.91;5023411;28;20606;-71
2022/03/27 00:32:16;;;;;;;21.13;8.82;;;;;;;11.64;96.85;102728.59;5024428;28;20136;-71
2022/03/27 00:34:43;;;;;;;17.75;8.85;;;;;;;11.62;97.50;102730.13;5018950;28;20057;-72
2022/03/27 00:37:09;;;;;;;18.73;8.13;;;;;;;11.63;97.93;102724.22;5027260;28;20057;-71
2022/03/27 00:39:36;;;;;;;16.73;7.80;;;;;;;11.62;97.61;102732.88;5027435;28;20050;-73
2022/03/27 00:42:03;;;;;;;18.98;8.35;;;;;;;11.59;97.91;102731.59;5025445;28;20913;-73
2022/03/27 00:44:29;;;;;;;18.10;8.00;;;;;;;11.57;99.50;102727.56;5027266;28;20049;-71
2022/03/27 00:46:57;;;;;;;17.83;8.02;;;;;;;11.58;98.46;102731.97;5024017;28;20073;-72
2022/03/27 00:49:23;;;;;;;19.42;8.73;;;;;;;11.54;97.35;102733.84;5026339;28;20067;-72
2022/03/27 00:51:50;;;;;;;25.52;8.45;;;;;;;11.47;97.72;102734.44;5037974;28;20099;-71
2022/03/27 00:54:16;;;;;;;21.63;9.25;;;;;;;11.42;97.88;102733.91;5040308;28;20156;-73
2022/03/27 00:56:43;;;;;;;16.98;7.63;;;;;;;11.36;98.45;102730.56;5034869;28;20059;-74
2022/03/27 00:59:09;;;;;;;17.65;7.88;;;;;;;11.30;98.90;102723.66;5043762;28;20063;-71
2022/03/27 01:01:39;;;;;;;21.00;8.65;;;;;;;11.34;98.95;102729.31;5039390;28;20140;-74
2022/03/27 01:04:08;;;;;;;19.45;8.07;;;;;;;11.31;97.57;102728.03;5039870;28;20068;-73
2022/03/27 01:06:43;;;;;;;15.77;6.90;;;;;;;11.27;97.50;102727.16;5042010;28;20067;-75
2022/03/27 01:12:17;;;;;;;21.15;8.45;;;;;;;11.14;98.67;102722.03;5042500;28;20481;-73
2022/03/27 01:14:44;;;;;;;18.58;8.10;;;;;;;11.10;98.76;102715.59;5033976;28;20073;-69
2022/03/27 01:17:16;;;;;;;18.27;8.38;;;;;;;11.04;99.06;102711.44;5028397;28;20057;-69
2022/03/27 01:19:50;;;;;;;18.70;8.35;;;;;;;11.01;99.75;102717.69;5036619;28;20059;-70
2022/03/27 01:22:18;;;;;;;20.52;9.55;;;;;;;10.96;100.00;102721.50;5039450;28;20084;-69
2022/03/27 01:24:46;;;;;;;20.38;10.07;;;;;;;10.90;100.00;102717.38;5040993;28;20045;-71
2022/03/27 01:27:13;;;;;;;20.95;9.75;;;;;;;10.90;100.00;102716.59;5038268;28;20054;-72
2022/03/27 01:37:49;;;;;;;23.33;9.60;;;;;;;10.83;100.00;102706.09;5222047;23;20406;-72
2022/03/27 02:20:39;;;;;;;27.25;13.55;;;;;;;10.69;100.00;102693.81;5129196;23;20077;-70
2022/03/27 02:23:09;;;;;;;25.48;13.40;;;;;;;10.64;100.00;102697.63;4962916;28;20049;-70
2022/03/27 02:25:35;;;;;;;24.50;12.77;;;;;;;10.64;100.00;102696.81;4963524;28;20130;-69
2022/03/27 02:28:03;;;;;;;25.02;13.70;;;;;;;10.62;100.00;102694.38;4970200;28;20078;-69
2022/03/27 02:30:30;;;;;;;24.02;13.63;;;;;;;10.63;100.00;102695.19;4957424;28;20434;-72
2022/03/27 02:32:56;;;;;;;25.77;13.52;;;;;;;10.62;100.00;102699.09;4960022;28;20042;-70
2022/03/27 02:35:23;;;;;;;25.95;14.25;;;;;;;10.58;100.00;102693.47;4959534;28;20055;-71
2022/03/27 02:37:50;;;;;;;25.92;13.05;;;;;;;10.56;100.00;102684.69;4957951;28;20426;-70
2022/03/27 02:40:17;;;;;;;27.98;14.23;;;;;;;10.50;100.00;102686.91;4959505;28;20149;-71
2022/03/27 02:42:43;;;;;;;26.67;14.32;;;;;;;10.52;100.00;102689.34;4964860;28;20046;-70
2022/03/27 02:45:10;;;;;;;28.30;15.05;;;;;;;10.53;100.00;102697.28;4962528;28;20226;-70
2022/03/27 02:47:37;;;;;;;27.52;15.15;;;;;;;10.49;100.00;102695.56;4964392;28;20762;-70
2022/03/27 02:50:05;;;;;;;25.15;14.75;;;;;;;10.49;100.00;102703.88;4962064;28;20239;-71
2022/03/27 02:52:33;;;;;;;28.77;16.30;;;;;;;10.53;100.00;102694.53;4961247;28;20102;-71
2022/03/27 02:54:59;;;;;;;33.63;16.65;;;;;;;10.53;100.00;102691.75;4957960;28;20078;-70
2022/03/27 02:57:26;;;;;;;29.95;16.45;;;;;;;10.55;100.00;102691.41;4968995;28;20570;-70
2022/03/27 02:59:53;;;;;;;29.33;16.70;;;;;;;10.53;100.00;102688.97;4965617;28;20051;-73
2022/03/27 03:02:20;;;;;;;29.90;17.38;;;;;;;10.57;100.00;102696.59;4964884;28;20050;-71
2022/03/27 03:04:47;;;;;;;35.30;17.63;;;;;;;10.59;100.00;102695.06;4964974;28;20109;-72
2022/03/27 03:07:18;;;;;;;31.20;17.83;;;;;;;10.60;100.00;102693.13;4961577;28;20485;-71
2022/03/27 03:09:44;;;;;;;28.85;16.23;;;;;;;10.63;100.00;102690.44;4959395;28;20054;-70
2022/03/27 03:12:11;;;;;;;32.60;19.25;;;;;;;10.66;100.00;102697.28;4955375;28;20138;-72
2022/03/27 03:14:38;;;;;;;36.85;18.58;;;;;;;10.67;100.00;102696.09;4959501;28;20054;-71
2022/03/27 03:17:05;;;;;;;34.28;17.85;;;;;;;10.71;100.00;102695.06;4959294;28;20134;-71
2022/03/27 03:19:32;;;;;;;34.33;17.50;;;;;;;10.74;100.00;102696.31;4959662;28;20146;-71
2022/03/27 03:21:59;;;;;;;31.77;16.80;;;;;;;10.77;100.00;102696.44;4957882;28;20092;-71
2022/03/27 03:24:27;;;;;;;33.15;17.73;;;;;;;10.79;100.00;102693.28;4963908;28;20051;-70
2022/03/27 03:26:57;;;;;;;31.10;16.88;;;;;;;10.77;100.00;102692.84;4965017;28;20126;-70
2022/03/27 03:29:25;;;;;;;35.08;18.77;;;;;;;10.80;100.00;102701.25;4957816;28;20055;-70
2022/03/27 03:31:51;;;;;;;33.60;17.55;;;;;;;10.79;100.00;102699.63;4960577;28;20802;-69
2022/03/27 03:34:18;;;;;;;35.20;19.58;;;;;;;10.83;100.00;102697.78;4960636;28;20059;-71
2022/03/27 03:36:44;;;;;;;30.80;17.85;;;;;;;10.83;100.00;102683.94;4958860;28;20052;-70
2022/03/27 03:39:11;;;;;;;34.10;18.60;;;;;;;10.85;100.00;102700.19;4961811;28;20050;-70
2022/03/27 03:41:38;;;;;;;31.95;18.45;;;;;;;10.84;100.00;102704.13;4958917;28;20090;-71
2022/03/27 03:44:21;;;;;;;34.92;18.33;;;;;;;10.87;100.00;102695.13;4959464;28;20863;-70
2022/03/27 03:46:48;;;;;;;32.72;18.88;;;;;;;10.90;100.00;102699.97;4962939;28;20117;-70
2022/03/27 03:49:16;;;;;;;34.42;19.05;;;;;;;10.90;100.00;102691.66;4955860;28;20110;-70
2022/03/27 03:51:42;;;;;;;30.35;18.10;;;;;;;10.94;100.00;102690.59;4972128;28;20497;-70
2022/03/27 03:54:09;;;;;;;35.38;18.98;;;;;;;10.94;100.00;102698.09;4970308;28;20075;-71
2022/03/27 03:56:38;;;;;;;32.47;18.48;;;;;;;10.95;100.00;102699.69;4953828;28;20569;-70
2022/03/27 03:59:05;;;;;;;29.55;16.88;;;;;;;10.93;100.00;102699.25;4963629;28;20059;-71
2022/03/27 04:01:51;;;;;;;32.60;17.98;;;;;;;10.95;100.00;102700.50;4956409;28;20057;-69
2022/03/27 04:04:18;;;;;;;33.30;19.40;;;;;;;10.96;100.00;102696.56;4958758;28;20055;-69
2022/03/27 04:06:45;;;;;;;32.65;19.13;;;;;;;10.95;100.00;102696.94;4959157;28;20070;-70
2022/03/27 04:09:11;;;;;;;27.95;14.88;;;;;;;10.91;100.00;102693.25;4966577;28;20143;-70
2022/03/27 04:11:38;;;;;;;29.90;16.80;;;;;;;10.91;100.00;102691.31;4958444;28;20059;-70
2022/03/27 04:14:04;;;;;;;30.05;16.15;;;;;;;10.90;100.00;102705.50;4960154;28;20046;-70
2022/03/27 04:16:31;;;;;;;30.73;18.35;;;;;;;10.87;100.00;102692.34;4961619;28;20047;-70
2022/03/27 04:18:58;;;;;;;31.13;17.95;;;;;;;10.86;100.00;102704.59;4960090;28;20126;-70
2022/03/27 04:21:24;;;;;;;31.65;16.80;;;;;;;10.80;100.00;102697.69;4958116;28;20133;-70
2022/03/27 04:23:51;;;;;;;34.63;19.00;;;;;;;10.77;100.00;102701.16;4960179;28;20093;-71
2022/03/27 04:26:18;;;;;;;31.98;18.48;;;;;;;10.79;100.00;102699.63;4956149;28;20195;-70
2022/03/27 04:28:45;;;;;;;33.05;18.73;;;;;;;10.79;100.00;102693.28;4956289;28;20043;-70
2022/03/27 04:31:12;;;;;;;35.42;19.40;;;;;;;10.80;100.00;102694.91;4956256;28;20050;-70
2022/03/27 04:33:38;;;;;;;29.85;18.50;;;;;;;10.81;100.00;102690.97;4966829;28;20074;-71
2022/03/27 04:36:06;;;;;;;34.42;20.48;;;;;;;10.82;100.00;102700.91;4963543;28;20042;-72
2022/03/27 04:38:32;;;;;;;37.13;19.85;;;;;;;10.81;100.00;102707.59;4957950;28;20072;-73
2022/03/27 04:40:59;;;;;;;35.53;19.67;;;;;;;10.76;100.00;102699.56;4958030;28;20487;-70
2022/03/27 04:43:27;;;;;;;30.95;14.25;;;;;;;10.84;100.00;102709.66;4960989;28;20058;-71
2022/03/27 04:45:53;;;;;;;31.67;17.63;;;;;;;10.80;100.00;102706.78;4956711;28;20407;-70
2022/03/27 04:48:20;;;;;;;31.35;17.10;;;;;;;10.79;100.00;102715.44;4956662;28;20141;-71
2022/03/27 04:50:48;;;;;;;34.00;18.25;;;;;;;10.74;100.00;102718.47;4962182;28;20054;-70
2022/03/27 04:53:15;;;;;;;30.38;17.35;;;;;;;10.66;100.00;102716.66;4957388;28;20115;-70
2022/03/27 04:55:42;;;;;;;31.75;17.92;;;;;;;10.62;100.00;102721.25;4958199;28;20058;-71
2022/03/27 04:58:09;;;;;;;31.17;17.25;;;;;;;10.58;100.00;102732.22;4960891;28;20065;-70
2022/03/27 05:00:37;;;;;;;31.60;16.30;;;;;;;10.57;100.00;102732.59;4956862;28;20124;-71
2022/03/27 05:03:05;;;;;;;29.60;17.50;;;;;;;10.54;100.00;102726.56;4961250;28;20078;-72
2022/03/27 05:05:31;;;;;;;31.95;17.40;;;;;;;10.51;100.00;102723.72;4960628;28;20867;-71
2022/03/27 05:07:58;;;;;;;29.88;16.95;;;;;;;10.53;100.00;102736.03;4961027;28;20051;-71
2022/03/27 05:10:25;;;;;;;34.95;17.00;;;;;;;10.48;100.00;102728.00;4953704;28;20103;-71
2022/03/27 05:12:52;;;;;;;30.52;16.65;;;;;;;10.45;100.00;102733.41;4955741;28;20085;-71
2022/03/27 05:15:19;;;;;;;34.00;17.67;;;;;;;10.40;100.00;102734.44;4955784;28;20138;-72
2022/03/27 05:17:49;;;;;;;35.83;17.88;;;;;;;10.38;100.00;102735.94;4955922;28;20137;-71
2022/03/27 05:20:16;;;;;;;34.92;17.88;;;;;;;10.36;100.00;102736.28;4958794;28;20474;-70
2022/03/27 05:22:43;;;;;;;28.73;15.63;;;;;;;10.35;100.00;102739.41;4959159;28;20137;-72
2022/03/27 05:25:12;;;;;;;28.77;15.45;;;;;;;10.29;100.00;102738.84;4957158;28;20490;-70
2022/03/27 05:27:50;;;;;;;32.15;17.50;;;;;;;10.28;100.00;102742.78;4952449;28;20461;-70
2022/03/27 05:30:19;;;;;;;36.47;18.08;;;;;;;10.25;100.00;102740.69;4959021;28;20072;-71
2022/03/27 05:32:46;;;;;;;34.17;17.90;;;;;;;10.19;100.00;102744.84;4956646;28;20102;-71
2022/03/27 05:35:13;;;;;;;29.75;14.65;;;;;;;10.21;100.00;102745.31;4952535;28;20134;-70
2022/03/27 05:37:41;;;;;;;29.67;16.58;;;;;;;10.17;100.00;102741.59;4953959;28;20211;-71
2022/03/27 05:40:10;;;;;;;25.52;12.88;;;;;;;10.15;100.00;102740.34;4972069;28;20197;-72
2022/03/27 05:42:37;;;;;;;27.88;12.70;;;;;;;10.10;100.00;102743.34;4960040;28;20067;-72
2022/03/27 05:45:06;;;;;;;27.17;14.43;;;;;;;10.06;100.00;102742.44;4958748;28;20051;-72
2022/03/27 05:47:33;;;;;;;30.02;16.13;;;;;;;10.07;100.00;102747.63;4956441;28;20649;-71
2022/03/27 05:50:00;;;;;;;30.80;16.85;;;;;;;10.06;100.00;102745.97;4953205;28;20055;-70
2022/03/27 05:52:27;;;;;;;31.65;16.85;;;;;;;10.03;100.00;102738.34;4959483;28;20141;-72
2022/03/27 05:54:53;;;;;;;33.28;16.30;;;;;;;10.04;100.00;102737.22;4956379;28;20082;-70
2022/03/27 05:57:20;;;;;;;31.15;16.92;;;;;;;10.05;100.00;102749.88;4961102;28;20133;-70
2022/03/27 05:59:47;;;;;;;31.65;15.77;;;;;;;10.06;100.00;102745.19;4962213;28;20058;-71
2022/03/27 06:02:14;;;;;;;33.08;16.23;;;;;;;10.07;100.00;102744.03;4957311;28;20729;-71
2022/03/27 06:04:42;;;;;;;31.40;16.27;;;;;;;10.10;100.00;102744.13;4959733;28;20066;-71
2022/03/27 06:07:09;;;;;;;30.85;15.70;;;;;;;10.11;100.00;102745.78;4960781;28;20291;-71
2022/03/27 06:09:36;;;;;;;34.88;16.83;;;;;;;10.12;100.00;102749.31;4958141;28;20059;-69
2022/03/27 06:12:04;;;;;;;32.60;17.48;;;;;;;10.13;100.00;102748.97;4967968;28;20047;-72
2022/03/27 06:14:31;;;;;;;29.30;16.10;;;;;;;10.14;100.00;102745.06;4962334;28;20086;-70
2022/03/27 06:16:58;;;;;;;28.27;14.82;;;;;;;10.14;100.00;102750.63;4963300;28;20133;-69
2022/03/27 06:19:26;;;;;;;27.98;14.32;;;;;;;10.13;100.00;102753.72;4963178;28;20046;-69
2022/03/27 06:21:52;;;;;;;31.52;17.83;;;;;;;10.16;100.00;102759.34;4961557;28;20126;-69
2022/03/27 06:24:19;;;;;;;31.20;17.13;;;;;;;10.22;100.00;102757.97;4958427;28;20062;-70
2022/03/27 06:26:46;;;;;;;31.90;16.55;;;;;;;10.23;100.00;102759.59;4960934;28;20078;-71
2022/03/27 06:29:14;;;;;;;32.72;16.35;;;;;;;10.28;100.00;102759.38;4957060;28;20057;-70
2022/03/27 06:31:41;;;;;;;30.88;17.67;;;;;;;10.33;100.00;102761.88;4967390;28;20047;-70
2022/03/27 06:34:07;;;;;;;31.00;15.73;;;;;;;10.37;100.00;102762.03;4968905;28;20089;-69
2022/03/27 06:36:37;;;;;;;32.40;16.92;;;;;;;10.38;100.00;102767.22;4970838;28;20089;-70
2022/03/27 06:39:04;;;;;;;32.22;17.20;;;;;;;10.42;100.00;102762.59;4971352;28;20077;-70
2022/03/27 06:41:31;;;;;;;31.55;15.85;;;;;;;10.44;100.00;102765.00;4966577;28;20051;-70
2022/03/27 06:43:58;;;;;;;30.85;15.82;;;;;;;10.48;100.00;102771.47;4958445;28;20075;-71
2022/03/27 06:46:24;;;;;;;34.13;17.00;;;;;;;10.46;100.00;102774.56;4968090;28;20046;-71
2022/03/27 06:48:51;;;;;;;27.85;15.02;;;;;;;10.47;100.00;102767.88;4968076;28;20065;-70
2022/03/27 06:51:18;;;;;;;31.90;16.75;;;;;;;10.52;100.00;102775.13;4963998;28;20422;-70
2022/03/27 06:53:45;;;;;;;34.17;17.45;;;;;;;10.56;100.00;102775.28;4962450;28;20046;-71
2022/03/27 06:56:11;;;;;;;33.80;16.70;;;;;;;10.47;100.00;102770.63;4962378;28;22048;-71
2022/03/27 06:58:38;;;;;;;38.70;19.15;;;;;;;10.52;100.00;102777.91;4963609;28;20054;-71
2022/03/27 07:03:50;;;;;;;35.35;19.65;;;;;;;10.52;100.00;102769.59;4966358;28;20055;-74
2022/03/27 07:06:17;;;;;;;33.50;17.45;;;;;;;10.52;100.00;102779.88;4957772;28;20097;-72
2022/03/27 07:08:43;;;;;;;38.97;19.30;;;;;;;10.49;100.00;102782.19;4968456;28;20054;-71
2022/03/27 07:11:10;;;;;;;38.47;19.25;;;;;;;10.54;100.00;102781.16;4964343;28;20097;-72
2022/03/27 07:13:37;;;;;;;37.00;18.65;;;;;;;10.56;100.00;102778.03;4962768;28;20150;-72
2022/03/27 07:16:11;;;;;;;34.15;17.88;;;;;;;10.57;100.00;102777.69;4958436;28;20457;-73
2022/03/27 07:18:37;;;;;;;34.28;17.95;;;;;;;10.56;100.00;102766.97;4969619;28;20113;-73
2022/03/27 07:21:05;;;;;;;37.05;16.55;;;;;;;10.65;100.00;102778.69;4968937;28;20129;-72
2022/03/27 07:23:32;;;;;;;36.65;20.05;;;;;;;10.70;100.00;102772.94;4957295;28;20146;-73
2022/03/27 07:26:00;;;;;;;36.33;19.40;;;;;;;10.70;100.00;102772.94;4957103;28;20093;-73
2022/03/27 07:28:30;;;;;;;40.05;19.52;;;;;;;10.70;100.00;102770.16;4955452;28;20055;-73
2022/03/27 07:30:58;;;;;;;35.13;18.80;;;;;;;10.73;100.00;102763.94;4957111;28;20434;-73
2022/03/27 07:33:27;;;;;;;34.40;17.73;;;;;;;10.76;100.00;102766.78;4957102;28;20055;-73
2022/03/27 07:35:55;;;;;;;38.15;18.98;;;;;;;10.84;100.00;102773.38;4965982;28;20051;-73
2022/03/27 07:38:21;;;;;;;39.55;20.33;;;;;;;10.82;100.00;102775.66;4965418;28;20090;-72
2022/03/27 07:40:48;;;;;;;38.42;20.27;;;;;;;10.86;100.00;102773.84;4953713;28;20130;-72
2022/03/27 07:43:15;;;;;;;36.63;19.35;;;;;;;10.89;100.00;102771.16;4959199;28;20046;-73
2022/03/27 07:45:41;;;;;;;36.67;19.60;;;;;;;10.97;100.00;102772.97;4965044;28;20055;-73
2022/03/27 07:48:08;;;;;;;38.08;20.33;;;;;;;11.04;100.00;102769.63;4953197;28;20083;-73
2022/03/27 07:50:35;;;;;;;37.33;18.20;;;;;;;11.05;100.00;102768.47;4952118;28;20058;-74
2022/03/27 07:53:04;;;;;;;35.88;18.75;;;;;;;11.09;100.00;102775.72;4974757;28;20614;-73
2022/03/27 07:55:31;;;;;;;33.53;17.90;;;;;;;11.16;100.00;102780.66;4959049;28;20413;-73
2022/03/27 07:57:58;;;;;;;40.75;18.85;;;;;;;11.18;100.00;102776.38;4960988;28;20149;-75
2022/03/27 08:00:27;;;;;;;36.25;19.42;;;;;;;11.27;100.00;102767.94;4952237;28;20051;-73
2022/03/27 08:02:56;;;;;;;36.33;18.25;;;;;;;11.39;100.00;102774.22;4958269;28;20054;-74
2022/03/27 08:05:24;;;;;;;38.70;20.63;;;;;;;11.46;100.00;102779.16;4965530;28;20066;-75
2022/03/27 08:07:51;;;;;;;35.97;18.70;;;;;;;11.56;100.00;102782.22;4969635;28;20195;-72
2022/03/27 08:10:18;;;;;;;39.25;17.35;;;;;;;11.61;100.00;102781.97;4965837;28;20577;-73
2022/03/27 08:12:46;;;;;;;36.08;18.88;;;;;;;11.64;100.00;102777.72;4959920;28;20059;-73
2022/03/27 08:15:13;;;;;;;34.30;18.42;;;;;;;11.72;100.00;102776.72;4968164;28;20072;-74
2022/03/27 08:17:46;;;;;;;40.55;20.33;;;;;;;11.78;100.00;102769.78;4969397;28;20146;-73
2022/03/27 08:20:12;;;;;;;36.05;18.05;;;;;;;11.92;100.00;102770.94;4955086;28;20071;-76
2022/03/27 08:22:39;;;;;;;34.65;17.95;;;;;;;11.98;100.00;102777.81;4954946;28;20511;-72
2022/03/27 08:25:06;;;;;;;33.97;18.40;;;;;;;12.07;100.00;102767.38;4959498;28;20087;-73
2022/03/27 08:27:33;;;;;;;35.85;18.27;;;;;;;12.17;100.00;102775.16;4951603;28;20158;-73
2022/03/27 08:30:00;;;;;;;35.17;18.48;;;;;;;12.14;100.00;102773.09;4956145;28;20114;-73
2022/03/27 08:32:26;;;;;;;35.00;19.35;;;;;;;12.16;99.88;102775.50;4949426;28;20463;-73
2022/03/27 08:34:53;;;;;;;38.08;18.73;;;;;;;12.21;99.51;102775.22;4953291;28;20178;-76
2022/03/27 08:37:19;;;;;;;37.60;18.38;;;;;;;12.24;99.09;102780.06;4964422;28;20430;-72
2022/03/27 08:39:46;;;;;;;41.30;20.85;;;;;;;12.24;99.02;102788.38;4951513;28;20055;-74
2022/03/27 08:42:16;;;;;;;33.47;16.58;;;;;;;12.29;99.11;102785.34;4951609;28;20055;-73
2022/03/27 08:44:43;;;;;;;38.60;21.75;;;;;;;12.36;98.72;102791.09;4954071;28;20055;-73
2022/03/27 08:47:22;;;;;;;36.80;18.75;;;;;;;12.45;97.92;102786.13;4957898;28;20062;-73
2022/03/27 08:49:53;;;;;;;33.70;17.05;;;;;;;12.55;97.30;102786.38;4954099;28;20614;-72
2022/03/27 08:52:21;;;;;;;35.60;18.00;;;;;;;12.61;96.79;102782.19;4952752;28;20053;-72
2022/03/27 08:55:00;;;;;;;38.25;20.25;;;;;;;12.64;96.03;102777.88;4958069;28;20726;-75
2022/03/27 08:57:30;;;;;;;36.97;18.77;;;;;;;12.69;95.69;102777.59;4955363;28;20065;-72
2022/03/27 08:59:57;;;;;;;41.95;21.98;;;;;;;12.77;95.15;102785.72;4968811;28;20130;-74
2022/03/27 09:02:24;;;;;;;36.47;20.17;;;;;;;12.78;95.17;102773.44;4951645;28;20066;-73
2022/03/27 09:04:55;;;;;;;35.92;19.23;;;;;;;12.90;94.31;102776.06;4952805;28;20054;-76
2022/03/27 09:07:29;;;;;;;45.33;20.80;;;;;;;13.07;93.47;102780.44;4963540;28;20233;-74
2022/03/27 09:09:58;;;;;;;35.97;19.42;;;;;;;13.22;92.74;102785.13;4966105;28;20054;-72
2022/03/27 09:12:25;;;;;;;34.95;18.45;;;;;;;13.33;92.93;102782.56;4958676;28;20061;-72
2022/03/27 09:14:52;;;;;;;32.25;15.93;;;;;;;13.46;91.02;102779.25;4961283;28;20106;-73
2022/03/27 09:17:18;;;;;;;32.97;19.17;;;;;;;13.55;89.83;102781.81;4953252;28;20122;-73
2022/03/27 09:19:50;;;;;;;34.58;18.90;;;;;;;13.53;88.67;102776.63;4967611;28;20109;-72
2022/03/27 09:22:18;;;;;;;35.88;18.67;;;;;;;13.60;88.70;102779.53;4958457;28;20137;-72
2022/03/27 09:24:50;;;;;;;35.38;16.98;;;;;;;13.63;87.95;102775.22;4968371;28;20051;-72
2022/03/27 09:27:16;;;;;;;32.83;16.00;;;;;;;13.69;87.14;102784.84;4950908;28;20047;-72
2022/03/27 09:29:59;;;;;;;38.53;20.08;;;;;;;13.79;87.24;102784.25;4958730;28;20098;-72
2022/03/27 09:32:28;;;;;;;35.13;16.95;;;;;;;13.97;87.18;102791.75;4964487;28;20059;-72
2022/03/27 09:34:59;;;;;;;37.17;20.08;;;;;;;14.11;86.54;102783.66;4958813;28;20215;-73
2022/03/27 09:37:34;;;;;;;34.38;18.55;;;;;;;14.22;85.33;102781.91;4956767;28;20134;-73
2022/03/27 09:40:02;;;;;;;36.30;19.30;;;;;;;14.37;84.19;102774.56;4953120;28;20047;-73
2022/03/27 09:42:29;;;;;;;37.35;17.90;;;;;;;14.48;83.53;102770.75;4952011;28;20051;-73
2022/03/27 09:45:28;;;;;;;36.35;17.25;;;;;;;14.63;81.83;102775.38;4957851;28;20778;-73
2022/03/27 09:48:07;;;;;;;32.47;15.60;;;;;;;14.71;81.29;102774.31;4899959;29;20059;-72
2022/03/27 09:50:37;;;;;;;37.33;20.70;;;;;;;14.90;81.04;102776.97;4958118;28;20488;-74
2022/03/27 09:53:25;;;;;;;40.55;17.48;;;;;;;14.98;79.37;102764.72;4966049;28;20137;-73
2022/03/27 09:56:01;;;;;;;32.13;16.08;;;;;;;14.99;78.08;102777.47;4963682;28;20055;-73
2022/03/27 09:58:45;;;;;;;33.85;16.55;;;;;;;15.05;78.25;102767.59;4943178;28;20078;-74
2022/03/27 10:01:17;;;;;;;34.65;18.05;;;;;;;15.17;78.39;102770.16;4958594;28;20134;-73
2022/03/27 10:04:08;;;;;;;33.00;17.30;;;;;;;15.20;76.91;102768.59;4956127;28;20074;-76
2022/03/27 10:06:37;;;;;;;31.95;17.70;;;;;;;15.37;77.43;102763.28;4955417;28;20712;-74
2022/03/27 10:09:06;;;;;;;36.88;19.48;;;;;;;15.48;76.89;102772.56;4954955;28;20056;-73
2022/03/27 10:11:34;;;;;;;35.20;18.25;;;;;;;15.63;76.02;102764.34;4963478;28;20325;-74
2022/03/27 10:14:03;;;;;;;34.00;16.27;;;;;;;15.71;75.34;102754.84;4965157;28;20042;-73
2022/03/27 10:16:34;;;;;;;38.80;19.50;;;;;;;15.81;74.87;102748.56;4954231;28;20058;-76
2022/03/27 10:19:09;;;;;;;34.10;17.67;;;;;;;15.80;73.86;102758.94;4962895;28;20047;-73
2022/03/27 10:21:37;;;;;;;37.65;19.65;;;;;;;15.93;73.93;102745.50;4959740;28;20137;-75
2022/03/27 10:24:07;;;;;;;33.33;16.98;;;;;;;16.02;73.00;102743.97;4966378;28;20109;-74
2022/03/27 10:26:37;;;;;;;38.58;19.02;;;;;;;16.12;73.03;102742.44;4960761;28;20054;-75
2022/03/27 10:29:06;;;;;;;30.00;15.32;;;;;;;16.11;71.94;102740.84;4950078;28;20522;-74
2022/03/27 10:31:33;;;;;;;35.13;16.98;;;;;;;16.21;72.07;102726.16;4957378;28;20423;-74
2022/03/27 10:34:01;;;;;;;34.17;16.70;;;;;;;16.27;71.71;102722.63;4966215;28;20085;-72
2022/03/27 10:36:40;;;;;;;30.90;14.05;;;;;;;16.37;70.61;102729.50;4959191;28;21179;-72
2022/03/27 10:39:16;;;;;;;34.38;16.38;;;;;;;16.48;71.02;102731.19;4963620;28;20130;-73
2022/03/27 10:41:47;;;;;;;33.38;16.50;;;;;;;16.60;70.50;102721.69;4955752;28;20106;-74
2022/03/27 10:44:31;;;;;;;34.92;18.40;;;;;;;16.71;69.31;102719.75;4966599;28;20142;-72
2022/03/27 10:47:12;;;;;;;33.55;14.93;;;;;;;16.97;68.95;102711.06;4965426;28;20134;-70
2022/03/27 10:49:40;;;;;;;34.60;16.95;;;;;;;17.13;67.82;102714.34;4960921;28;20061;-73
2022/03/27 10:52:08;;;;;;;35.70;15.93;;;;;;;17.26;67.07;102716.41;4953173;28;20070;-74
2022/03/27 10:55:02;;;;;;;37.65;16.67;;;;;;;17.25;64.49;102717.56;4974029;28;20055;-74
2022/03/27 10:57:33;;;;;;;37.17;17.48;;;;;;;17.36;64.90;102712.81;4960025;28;20070;-74
2022/03/27 11:00:03;;;;;;;35.65;17.35;;;;;;;17.47;65.32;102708.06;4963783;28;20066;-74
2022/03/27 11:02:53;;;;;;;36.90;17.90;;;;;;;17.46;61.70;102708.47;4956929;28;20595;-73
2022/03/27 11:05:29;;;;;;;33.13;16.70;;;;;;;17.49;62.15;102716.06;4962086;28;20113;-73
2022/03/27 11:08:19;;;;;;;35.22;15.20;;;;;;;17.63;61.87;102700.13;4964993;28;20051;-75
2022/03/27 11:10:55;;;;;;;34.20;16.90;;;;;;;17.83;61.91;102700.53;4924666;28;20142;-73
2022/03/27 11:13:33;;;;;;;35.42;17.67;;;;;;;18.05;60.15;102701.31;4963385;28;20703;-73
2022/03/27 11:16:15;;;;;;;34.92;16.30;;;;;;;18.14;58.58;102704.50;4969981;28;20050;-73
2022/03/27 11:18:47;;;;;;;34.00;16.35;;;;;;;18.27;58.99;102697.28;4957486;28;20039;-72
2022/03/27 11:21:26;;;;;;;34.22;16.50;;;;;;;18.55;57.81;102700.06;4961195;28;20521;-73
2022/03/27 11:24:19;;;;;;;32.67;15.85;;;;;;;18.75;56.60;102690.78;4966964;28;20074;-73
2022/03/27 11:26:47;;;;;;;28.38;14.27;;;;;;;18.75;56.04;102687.19;4966293;28;20054;-72
2022/03/27 11:29:17;;;;;;;27.67;14.15;;;;;;;18.92;55.42;102689.91;4959602;28;20048;-72
2022/03/27 11:31:43;;;;;;;30.15;14.55;;;;;;;19.16;53.38;102693.81;4953458;28;20411;-76
2022/03/27 11:34:16;;;;;;;25.63;11.98;;;;;;;19.43;53.23;102684.47;4959272;28;20107;-71
2022/03/27 11:36:48;;;;;;;18.98;8.35;;;;;;;19.49;51.81;102682.00;4958690;28;20078;-74
2022/03/27 11:39:30;;;;;;;21.30;10.32;;;;;;;19.41;47.80;102675.63;4971015;28;20197;-74
2022/03/27 11:42:30;;;;;;;18.40;8.70;;;;;;;19.56;45.15;102671.53;4958220;28;20146;-73
2022/03/27 11:45:16;;;;;;;11.23;4.32;;;;;;;19.69;42.38;102661.41;4965431;28;20074;-73
2022/03/27 11:47:50;;;;;;;15.13;5.65;;;;;;;19.91;43.15;102654.38;4962304;28;20510;-73
2022/03/27 11:50:34;;;;;;;19.25;7.38;;;;;;;20.05;42.62;102664.72;4962011;28;20137;-74
2022/03/27 11:53:02;;;;;;;16.55;6.88;;;;;;;20.24;43.50;102656.50;4963559;28;20125;-74
2022/03/27 11:55:31;;;;;;;14.20;6.07;;;;;;;20.35;43.34;102645.94;4963479;28;20603;-75
2022/03/27 11:57:59;;;;;;;10.85;4.07;;;;;;;20.57;40.33;102642.88;4961171;28;20078;-74
2022/03/27 12:00:40;;;;;;;9.23;4.63;;;;;;;20.84;38.45;102646.56;4966496;28;20055;-74
2022/03/27 12:03:19;;;;;;;8.45;2.97;;;;;;;21.04;37.86;102636.28;4960269;28;20066;-78
2022/03/27 12:05:47;;;;;;;7.68;2.97;;;;;;;21.18;37.94;102638.88;4956300;28;20566;-76
2022/03/27 12:08:17;;;;;;;7.93;3.25;;;;;;;21.29;37.23;102634.69;4962398;28;20141;-74
2022/03/27 12:10:54;;;;;;;13.00;5.55;;;;;;;21.44;37.99;102632.47;4962642;28;20218;-76